sensor_id;sensor_type;location;lat;lon;timestamp;P1;P2;P0
34240;PMS7003;20503;50.200;19.508;2023-09-30T00:00:07;15;12;9
34240;PMS7003;20503;50.200;19.508;2023-09-30T00:01:15;15;13;9
34240;PMS7003;20503;50.200;19.508;2023-09-30T00:02:22;15;13;9
34240;PMS7003;20503;50.200;19.508;2023-09-30T00:03:29;13;11;9
34240;PMS7003;20503;50.200;19.508;2023-09-30T00:04:43;15;11;9
34240;PMS7003;20503;50.200;19.508;2023-09-30T00:05:46;16;14;9
34240;PMS7003;20503;50.200;19.508;2023-09-30T00:06:49;16;14;9
34240;PMS7003;20503;50.200;19.508;2023-09-30T00:08:12;14;13;9
34240;PMS7003;20503;50.200;19.508;2023-09-30T00:09:18;14;13;9
34240;PMS7003;20503;50.200;19.508;2023-09-30T00:10:24;14;13;9
34240;PMS7003;20503;50.200;19.508;2023-09-30T00:11:30;14;11;8
34240;PMS7003;20503;50.200;19.508;2023-09-30T00:12:55;15;12;8
34240;PMS7003;20503;50.200;19.508;2023-09-30T00:13:59;12;10;8
34240;PMS7003;20503;50.200;19.508;2023-09-30T00:15:03;12;10;8
34240;PMS7003;20503;50.200;19.508;2023-09-30T00:16:10;15;12;8
34240;PMS7003;20503;50.200;19.508;2023-09-30T00:17:14;14;12;9
34240;PMS7003;20503;50.200;19.508;2023-09-30T00:18:23;13;12;9
34240;PMS7003;20503;50.200;19.508;2023-09-30T00:19:25;15;13;8
34240;PMS7003;20503;50.200;19.508;2023-09-30T00:20:33;15;13;8
34240;PMS7003;20503;50.200;19.508;2023-09-30T00:21:39;15;13;9
34240;PMS7003;20503;50.200;19.508;2023-09-30T00:22:43;15;13;9
34240;PMS7003;20503;50.200;19.508;2023-09-30T00:23:49;14;12;9
34240;PMS7003;20503;50.200;19.508;2023-09-30T00:24:53;15;12;9
34240;PMS7003;20503;50.200;19.508;2023-09-30T00:25:58;12;11;9
34240;PMS7003;20503;50.200;19.508;2023-09-30T00:27:02;14;12;8
34240;PMS7003;20503;50.200;19.508;2023-09-30T00:28:35;14;12;9
34240;PMS7003;20503;50.200;19.508;2023-09-30T00:29:40;13;12;9
34240;PMS7003;20503;50.200;19.508;2023-09-30T00:30:45;12;10;8
34240;PMS7003;20503;50.200;19.508;2023-09-30T00:31:49;12;10;8
34240;PMS7003;20503;50.200;19.508;2023-09-30T00:32:53;14;11;8
34240;PMS7003;20503;50.200;19.508;2023-09-30T00:34:21;14;11;8
34240;PMS7003;20503;50.200;19.508;2023-09-30T00:35:23;11;10;8
34240;PMS7003;20503;50.200;19.508;2023-09-30T00:36:28;15;12;9
34240;PMS7003;20503;50.200;19.508;2023-09-30T00:37:33;15;12;9
34240;PMS7003;20503;50.200;19.508;2023-09-30T00:38:40;14;12;9
34240;PMS7003;20503;50.200;19.508;2023-09-30T00:39:55;13;11;9
34240;PMS7003;20503;50.200;19.508;2023-09-30T00:40:58;13;11;9
34240;PMS7003;20503;50.200;19.508;2023-09-30T00:42:05;11;11;8
34240;PMS7003;20503;50.200;19.508;2023-09-30T00:43:17;14;13;9
34240;PMS7003;20503;50.200;19.508;2023-09-30T00:44:22;14;12;8
34240;PMS7003;20503;50.200;19.508;2023-09-30T00:45:24;14;12;8
34240;PMS7003;20503;50.200;19.508;2023-09-30T00:46:35;15;12;9
34240;PMS7003;20503;50.200;19.508;2023-09-30T00:47:43;15;12;9
34240;PMS7003;20503;50.200;19.508;2023-09-30T00:49:26;13;13;9
34240;PMS7003;20503;50.200;19.508;2023-09-30T00:50:30;16;14;9
34240;PMS7003;20503;50.200;19.508;2023-09-30T00:51:34;15;12;9
34240;PMS7003;20503;50.200;19.508;2023-09-30T00:52:39;13;12;8
34240;PMS7003;20503;50.200;19.508;2023-09-30T00:53:46;15;12;8
34240;PMS7003;20503;50.200;19.508;2023-09-30T00:54:51;15;12;8
34240;PMS7003;20503;50.200;19.508;2023-09-30T00:55:58;14;12;8
34240;PMS7003;20503;50.200;19.508;2023-09-30T00:57:04;15;12;8
34240;PMS7003;20503;50.200;19.508;2023-09-30T00:58:10;12;10;8
34240;PMS7003;20503;50.200;19.508;2023-09-30T00:59:16;12;10;8
34240;PMS7003;20503;50.200;19.508;2023-09-30T01:00:20;13;12;9
34240;PMS7003;20503;50.200;19.508;2023-09-30T01:01:25;14;12;8
34240;PMS7003;20503;50.200;19.508;2023-09-30T01:02:39;14;12;8
34240;PMS7003;20503;50.200;19.508;2023-09-30T01:03:48;13;13;10
34240;PMS7003;20503;50.200;19.508;2023-09-30T01:04:51;13;13;10
34240;PMS7003;20503;50.200;19.508;2023-09-30T01:06:23;15;10;8
34240;PMS7003;20503;50.200;19.508;2023-09-30T01:07:29;15;10;8
34240;PMS7003;20503;50.200;19.508;2023-09-30T01:08:39;12;10;8
34240;PMS7003;20503;50.200;19.508;2023-09-30T01:10:05;14;11;8
34240;PMS7003;20503;50.200;19.508;2023-09-30T01:11:15;18;13;9
34240;PMS7003;20503;50.200;19.508;2023-09-30T01:12:19;15;12;9
34240;PMS7003;20503;50.200;19.508;2023-09-30T01:13:22;13;10;8
34240;PMS7003;20503;50.200;19.508;2023-09-30T01:14:34;13;10;8
34240;PMS7003;20503;50.200;19.508;2023-09-30T01:16:05;14;11;8
34240;PMS7003;20503;50.200;19.508;2023-09-30T01:17:37;14;12;8
34240;PMS7003;20503;50.200;19.508;2023-09-30T01:18:41;15;11;8
34240;PMS7003;20503;50.200;19.508;2023-09-30T01:19:45;13;12;8
34240;PMS7003;20503;50.200;19.508;2023-09-30T01:20:53;15;10;8
34240;PMS7003;20503;50.200;19.508;2023-09-30T01:22:00;15;12;8
34240;PMS7003;20503;50.200;19.508;2023-09-30T01:23:11;15;12;8
34240;PMS7003;20503;50.200;19.508;2023-09-30T01:24:17;15;11;8
34240;PMS7003;20503;50.200;19.508;2023-09-30T01:25:21;15;11;8
34240;PMS7003;20503;50.200;19.508;2023-09-30T01:26:26;15;11;8
34240;PMS7003;20503;50.200;19.508;2023-09-30T01:27:30;15;11;8
34240;PMS7003;20503;50.200;19.508;2023-09-30T01:28:45;16;12;9
34240;PMS7003;20503;50.200;19.508;2023-09-30T01:29:53;16;12;9
34240;PMS7003;20503;50.200;19.508;2023-09-30T01:31:00;16;12;9
34240;PMS7003;20503;50.200;19.508;2023-09-30T01:32:08;12;10;8
34240;PMS7003;20503;50.200;19.508;2023-09-30T01:33:11;13;12;9
34240;PMS7003;20503;50.200;19.508;2023-09-30T01:34:22;13;12;9
34240;PMS7003;20503;50.200;19.508;2023-09-30T01:35:24;14;11;8
34240;PMS7003;20503;50.200;19.508;2023-09-30T01:36:37;15;11;8
34240;PMS7003;20503;50.200;19.508;2023-09-30T01:37:40;14;12;8
34240;PMS7003;20503;50.200;19.508;2023-09-30T01:38:46;15;13;9
34240;PMS7003;20503;50.200;19.508;2023-09-30T01:40:04;19;13;9
34240;PMS7003;20503;50.200;19.508;2023-09-30T01:41:14;19;13;9
34240;PMS7003;20503;50.200;19.508;2023-09-30T01:42:18;15;13;9
34240;PMS7003;20503;50.200;19.508;2023-09-30T01:43:25;15;13;9
34240;PMS7003;20503;50.200;19.508;2023-09-30T01:44:44;16;12;7
34240;PMS7003;20503;50.200;19.508;2023-09-30T01:45:49;16;12;7
34240;PMS7003;20503;50.200;19.508;2023-09-30T01:46:53;15;13;9
34240;PMS7003;20503;50.200;19.508;2023-09-30T01:47:58;15;13;9
34240;PMS7003;20503;50.200;19.508;2023-09-30T01:49:05;13;11;9
34240;PMS7003;20503;50.200;19.508;2023-09-30T01:50:14;13;12;8
34240;PMS7003;20503;50.200;19.508;2023-09-30T01:51:16;13;12;8
34240;PMS7003;20503;50.200;19.508;2023-09-30T01:52:27;15;12;9
34240;PMS7003;20503;50.200;19.508;2023-09-30T01:53:30;15;12;9
34240;PMS7003;20503;50.200;19.508;2023-09-30T01:54:37;14;10;8
34240;PMS7003;20503;50.200;19.508;2023-09-30T01:55:40;14;10;8
34240;PMS7003;20503;50.200;19.508;2023-09-30T01:56:49;15;11;8
34240;PMS7003;20503;50.200;19.508;2023-09-30T01:57:56;15;11;8
34240;PMS7003;20503;50.200;19.508;2023-09-30T01:59:05;15;12;8
34240;PMS7003;20503;50.200;19.508;2023-09-30T02:00:16;14;11;8
34240;PMS7003;20503;50.200;19.508;2023-09-30T02:01:22;14;11;8
34240;PMS7003;20503;50.200;19.508;2023-09-30T02:02:29;13;11;8
34240;PMS7003;20503;50.200;19.508;2023-09-30T02:03:32;13;11;8
34240;PMS7003;20503;50.200;19.508;2023-09-30T02:04:38;13;11;8
34240;PMS7003;20503;50.200;19.508;2023-09-30T02:05:46;13;11;8
34240;PMS7003;20503;50.200;19.508;2023-09-30T02:06:48;11;10;8
34240;PMS7003;20503;50.200;19.508;2023-09-30T02:07:54;11;10;8
34240;PMS7003;20503;50.200;19.508;2023-09-30T02:08:59;13;11;8
34240;PMS7003;20503;50.200;19.508;2023-09-30T02:10:11;13;11;8
34240;PMS7003;20503;50.200;19.508;2023-09-30T02:11:24;10;10;8
34240;PMS7003;20503;50.200;19.508;2023-09-30T02:12:31;10;10;8
34240;PMS7003;20503;50.200;19.508;2023-09-30T02:13:36;13;11;8
34240;PMS7003;20503;50.200;19.508;2023-09-30T02:14:39;15;13;9
34240;PMS7003;20503;50.200;19.508;2023-09-30T02:15:44;13;10;8
34240;PMS7003;20503;50.200;19.508;2023-09-30T02:16:47;13;10;8
34240;PMS7003;20503;50.200;19.508;2023-09-30T02:17:52;11;11;8
34240;PMS7003;20503;50.200;19.508;2023-09-30T02:18:59;13;11;8
34240;PMS7003;20503;50.200;19.508;2023-09-30T02:20:05;13;11;8
34240;PMS7003;20503;50.200;19.508;2023-09-30T02:21:16;12;10;8
34240;PMS7003;20503;50.200;19.508;2023-09-30T02:22:23;12;10;8
34240;PMS7003;20503;50.200;19.508;2023-09-30T02:23:29;14;11;8
34240;PMS7003;20503;50.200;19.508;2023-09-30T02:24:33;13;11;8
34240;PMS7003;20503;50.200;19.508;2023-09-30T02:25:40;13;11;8
34240;PMS7003;20503;50.200;19.508;2023-09-30T02:26:46;13;11;8
34240;PMS7003;20503;50.200;19.508;2023-09-30T02:27:54;13;11;8
34240;PMS7003;20503;50.200;19.508;2023-09-30T02:29:02;12;10;8
34240;PMS7003;20503;50.200;19.508;2023-09-30T02:30:11;13;11;8
34240;PMS7003;20503;50.200;19.508;2023-09-30T02:31:18;13;11;8
34240;PMS7003;20503;50.200;19.508;2023-09-30T02:32:22;14;10;8
34240;PMS7003;20503;50.200;19.508;2023-09-30T02:33:27;13;11;7
34240;PMS7003;20503;50.200;19.508;2023-09-30T02:34:35;13;11;7
34240;PMS7003;20503;50.200;19.508;2023-09-30T02:35:42;13;11;8
34240;PMS7003;20503;50.200;19.508;2023-09-30T02:36:48;14;11;8
34240;PMS7003;20503;50.200;19.508;2023-09-30T02:37:59;14;11;8
34240;PMS7003;20503;50.200;19.508;2023-09-30T02:39:04;13;11;8
34240;PMS7003;20503;50.200;19.508;2023-09-30T02:40:07;13;11;8
34240;PMS7003;20503;50.200;19.508;2023-09-30T02:41:19;12;11;8
34240;PMS7003;20503;50.200;19.508;2023-09-30T02:42:25;13;10;8
34240;PMS7003;20503;50.200;19.508;2023-09-30T02:43:32;13;10;8
34240;PMS7003;20503;50.200;19.508;2023-09-30T02:44:37;12;10;8
34240;PMS7003;20503;50.200;19.508;2023-09-30T02:45:39;12;10;8
34240;PMS7003;20503;50.200;19.508;2023-09-30T02:46:47;11;11;8
34240;PMS7003;20503;50.200;19.508;2023-09-30T02:47:54;13;10;8
34240;PMS7003;20503;50.200;19.508;2023-09-30T02:49:00;13;10;8
34240;PMS7003;20503;50.200;19.508;2023-09-30T02:50:08;13;11;8
34240;PMS7003;20503;50.200;19.508;2023-09-30T02:51:15;13;11;8
34240;PMS7003;20503;50.200;19.508;2023-09-30T02:52:18;14;10;8
34240;PMS7003;20503;50.200;19.508;2023-09-30T02:53:24;14;10;8
34240;PMS7003;20503;50.200;19.508;2023-09-30T02:54:30;15;11;8
34240;PMS7003;20503;50.200;19.508;2023-09-30T02:55:34;11;10;8
34240;PMS7003;20503;50.200;19.508;2023-09-30T02:56:41;18;13;8
34240;PMS7003;20503;50.200;19.508;2023-09-30T02:57:49;12;10;8
34240;PMS7003;20503;50.200;19.508;2023-09-30T02:58:53;15;11;8
34240;PMS7003;20503;50.200;19.508;2023-09-30T03:00:24;15;10;8
34240;PMS7003;20503;50.200;19.508;2023-09-30T03:01:35;12;11;8
34240;PMS7003;20503;50.200;19.508;2023-09-30T03:02:43;12;11;8
34240;PMS7003;20503;50.200;19.508;2023-09-30T03:03:55;13;10;8
34240;PMS7003;20503;50.200;19.508;2023-09-30T03:04:59;12;11;8
34240;PMS7003;20503;50.200;19.508;2023-09-30T03:06:06;12;11;8
34240;PMS7003;20503;50.200;19.508;2023-09-30T03:07:08;12;11;8
34240;PMS7003;20503;50.200;19.508;2023-09-30T03:08:34;13;10;7
34240;PMS7003;20503;50.200;19.508;2023-09-30T03:09:39;13;11;9
34240;PMS7003;20503;50.200;19.508;2023-09-30T03:10:43;13;11;8
34240;PMS7003;20503;50.200;19.508;2023-09-30T03:11:49;13;11;8
34240;PMS7003;20503;50.200;19.508;2023-09-30T03:13:09;12;10;8
34240;PMS7003;20503;50.200;19.508;2023-09-30T03:14:14;12;10;8
34240;PMS7003;20503;50.200;19.508;2023-09-30T03:15:17;14;12;8
34240;PMS7003;20503;50.200;19.508;2023-09-30T03:16:24;13;11;8
34240;PMS7003;20503;50.200;19.508;2023-09-30T03:17:30;12;10;8
34240;PMS7003;20503;50.200;19.508;2023-09-30T03:18:35;12;10;8
34240;PMS7003;20503;50.200;19.508;2023-09-30T03:19:46;15;12;8
34240;PMS7003;20503;50.200;19.508;2023-09-30T03:21:00;15;12;8
34240;PMS7003;20503;50.200;19.508;2023-09-30T03:22:13;14;11;8
34240;PMS7003;20503;50.200;19.508;2023-09-30T03:23:16;12;11;8
34240;PMS7003;20503;50.200;19.508;2023-09-30T03:24:24;15;11;9
34240;PMS7003;20503;50.200;19.508;2023-09-30T03:25:28;15;11;8
34240;PMS7003;20503;50.200;19.508;2023-09-30T03:26:32;15;11;8
34240;PMS7003;20503;50.200;19.508;2023-09-30T03:27:39;15;11;9
34240;PMS7003;20503;50.200;19.508;2023-09-30T03:28:42;13;11;8
34240;PMS7003;20503;50.200;19.508;2023-09-30T03:29:56;14;11;8
34240;PMS7003;20503;50.200;19.508;2023-09-30T03:31:01;13;10;8
34240;PMS7003;20503;50.200;19.508;2023-09-30T03:32:09;13;11;8
34240;PMS7003;20503;50.200;19.508;2023-09-30T03:33:16;13;11;8
34240;PMS7003;20503;50.200;19.508;2023-09-30T03:34:22;13;12;8
34240;PMS7003;20503;50.200;19.508;2023-09-30T03:35:27;13;12;8
34240;PMS7003;20503;50.200;19.508;2023-09-30T03:36:30;15;11;8
34240;PMS7003;20503;50.200;19.508;2023-09-30T03:37:40;13;11;9
34240;PMS7003;20503;50.200;19.508;2023-09-30T03:38:50;13;11;9
34240;PMS7003;20503;50.200;19.508;2023-09-30T03:39:55;14;11;8
34240;PMS7003;20503;50.200;19.508;2023-09-30T03:41:03;14;10;8
34240;PMS7003;20503;50.200;19.508;2023-09-30T03:42:10;13;11;9
34240;PMS7003;20503;50.200;19.508;2023-09-30T03:43:16;13;11;9
34240;PMS7003;20503;50.200;19.508;2023-09-30T03:44:32;16;12;10
34240;PMS7003;20503;50.200;19.508;2023-09-30T03:45:36;16;12;10
34240;PMS7003;20503;50.200;19.508;2023-09-30T03:46:41;13;11;9
34240;PMS7003;20503;50.200;19.508;2023-09-30T03:47:50;13;11;9
34240;PMS7003;20503;50.200;19.508;2023-09-30T03:48:54;12;10;8
34240;PMS7003;20503;50.200;19.508;2023-09-30T03:49:58;14;12;9
34240;PMS7003;20503;50.200;19.508;2023-09-30T03:51:12;14;12;9
34240;PMS7003;20503;50.200;19.508;2023-09-30T03:52:16;13;11;8
34240;PMS7003;20503;50.200;19.508;2023-09-30T03:53:29;13;11;8
34240;PMS7003;20503;50.200;19.508;2023-09-30T03:54:34;14;12;9
34240;PMS7003;20503;50.200;19.508;2023-09-30T03:55:37;16;11;9
34240;PMS7003;20503;50.200;19.508;2023-09-30T03:56:53;17;13;9
34240;PMS7003;20503;50.200;19.508;2023-09-30T03:58:01;17;13;9
34240;PMS7003;20503;50.200;19.508;2023-09-30T03:59:07;15;13;10
34240;PMS7003;20503;50.200;19.508;2023-09-30T04:00:13;15;13;10
34240;PMS7003;20503;50.200;19.508;2023-09-30T04:01:20;16;12;9
34240;PMS7003;20503;50.200;19.508;2023-09-30T04:02:29;17;13;9
34240;PMS7003;20503;50.200;19.508;2023-09-30T04:03:56;15;14;9
34240;PMS7003;20503;50.200;19.508;2023-09-30T04:05:02;15;14;9
34240;PMS7003;20503;50.200;19.508;2023-09-30T04:06:08;15;13;10
34240;PMS7003;20503;50.200;19.508;2023-09-30T04:07:13;15;14;10
34240;PMS7003;20503;50.200;19.508;2023-09-30T04:08:18;15;14;10
34240;PMS7003;20503;50.200;19.508;2023-09-30T04:09:24;12;11;8
34240;PMS7003;20503;50.200;19.508;2023-09-30T04:10:29;12;11;8
34240;PMS7003;20503;50.200;19.508;2023-09-30T04:11:34;15;13;9
34240;PMS7003;20503;50.200;19.508;2023-09-30T04:12:39;15;13;9
34240;PMS7003;20503;50.200;19.508;2023-09-30T04:13:48;16;13;9
34240;PMS7003;20503;50.200;19.508;2023-09-30T04:14:53;15;12;9
34240;PMS7003;20503;50.200;19.508;2023-09-30T04:15:59;15;12;9
34240;PMS7003;20503;50.200;19.508;2023-09-30T04:17:06;16;12;9
34240;PMS7003;20503;50.200;19.508;2023-09-30T04:18:17;15;13;10
34240;PMS7003;20503;50.200;19.508;2023-09-30T04:19:44;15;13;9
34240;PMS7003;20503;50.200;19.508;2023-09-30T04:21:14;15;13;10
34240;PMS7003;20503;50.200;19.508;2023-09-30T04:22:19;17;13;9
34240;PMS7003;20503;50.200;19.508;2023-09-30T04:23:26;14;13;9
34240;PMS7003;20503;50.200;19.508;2023-09-30T04:24:31;14;13;9
34240;PMS7003;20503;50.200;19.508;2023-09-30T04:25:37;16;14;10
34240;PMS7003;20503;50.200;19.508;2023-09-30T04:26:41;16;14;10
34240;PMS7003;20503;50.200;19.508;2023-09-30T04:27:47;15;14;10
34240;PMS7003;20503;50.200;19.508;2023-09-30T04:28:52;15;13;10
34240;PMS7003;20503;50.200;19.508;2023-09-30T04:29:58;15;13;10
34240;PMS7003;20503;50.200;19.508;2023-09-30T04:31:15;15;14;9
34240;PMS7003;20503;50.200;19.508;2023-09-30T04:32:18;15;14;9
34240;PMS7003;20503;50.200;19.508;2023-09-30T04:33:42;18;15;10
34240;PMS7003;20503;50.200;19.508;2023-09-30T04:34:49;17;14;10
34240;PMS7003;20503;50.200;19.508;2023-09-30T04:35:56;19;15;11
34240;PMS7003;20503;50.200;19.508;2023-09-30T04:37:00;22;16;11
34240;PMS7003;20503;50.200;19.508;2023-09-30T04:38:06;22;16;11
34240;PMS7003;20503;50.200;19.508;2023-09-30T04:39:12;18;16;12
34240;PMS7003;20503;50.200;19.508;2023-09-30T04:40:19;19;16;12
34240;PMS7003;20503;50.200;19.508;2023-09-30T04:41:22;19;17;13
34240;PMS7003;20503;50.200;19.508;2023-09-30T04:42:26;19;17;13
34240;PMS7003;20503;50.200;19.508;2023-09-30T04:43:34;20;16;11
34240;PMS7003;20503;50.200;19.508;2023-09-30T04:44:39;20;16;11
34240;PMS7003;20503;50.200;19.508;2023-09-30T04:45:46;17;15;11
34240;PMS7003;20503;50.200;19.508;2023-09-30T04:46:54;18;16;11
34240;PMS7003;20503;50.200;19.508;2023-09-30T04:48:02;18;15;10
34240;PMS7003;20503;50.200;19.508;2023-09-30T04:49:09;18;16;11
34240;PMS7003;20503;50.200;19.508;2023-09-30T04:50:11;16;15;11
34240;PMS7003;20503;50.200;19.508;2023-09-30T04:51:19;19;17;12
34240;PMS7003;20503;50.200;19.508;2023-09-30T04:52:21;23;19;12
34240;PMS7003;20503;50.200;19.508;2023-09-30T04:53:49;18;16;11
34240;PMS7003;20503;50.200;19.508;2023-09-30T04:54:56;18;16;11
34240;PMS7003;20503;50.200;19.508;2023-09-30T04:56:02;20;17;12
34240;PMS7003;20503;50.200;19.508;2023-09-30T04:57:06;20;17;12
34240;PMS7003;20503;50.200;19.508;2023-09-30T04:58:12;26;21;15
34240;PMS7003;20503;50.200;19.508;2023-09-30T04:59:15;24;19;15
34240;PMS7003;20503;50.200;19.508;2023-09-30T05:00:23;19;17;12
34240;PMS7003;20503;50.200;19.508;2023-09-30T05:01:31;18;16;12
34240;PMS7003;20503;50.200;19.508;2023-09-30T05:02:40;19;15;10
34240;PMS7003;20503;50.200;19.508;2023-09-30T05:03:46;19;15;10
34240;PMS7003;20503;50.200;19.508;2023-09-30T05:04:51;18;15;11
34240;PMS7003;20503;50.200;19.508;2023-09-30T05:06:05;19;15;10
34240;PMS7003;20503;50.200;19.508;2023-09-30T05:07:11;19;16;11
34240;PMS7003;20503;50.200;19.508;2023-09-30T05:08:14;17;15;10
34240;PMS7003;20503;50.200;19.508;2023-09-30T05:09:20;17;15;10
34240;PMS7003;20503;50.200;19.508;2023-09-30T05:10:31;22;15;12
34240;PMS7003;20503;50.200;19.508;2023-09-30T05:11:37;19;15;11
34240;PMS7003;20503;50.200;19.508;2023-09-30T05:13:07;19;16;12
34240;PMS7003;20503;50.200;19.508;2023-09-30T05:14:12;19;16;12
34240;PMS7003;20503;50.200;19.508;2023-09-30T05:15:22;17;15;11
34240;PMS7003;20503;50.200;19.508;2023-09-30T05:16:33;17;15;11
34240;PMS7003;20503;50.200;19.508;2023-09-30T05:17:38;18;16;11
34240;PMS7003;20503;50.200;19.508;2023-09-30T05:18:41;20;17;12
34240;PMS7003;20503;50.200;19.508;2023-09-30T05:19:52;20;17;12
34240;PMS7003;20503;50.200;19.508;2023-09-30T05:21:00;22;18;12
34240;PMS7003;20503;50.200;19.508;2023-09-30T05:22:03;22;18;12
34240;PMS7003;20503;50.200;19.508;2023-09-30T05:23:11;16;15;11
34240;PMS7003;20503;50.200;19.508;2023-09-30T05:24:18;16;15;11
34240;PMS7003;20503;50.200;19.508;2023-09-30T05:25:22;17;15;11
34240;PMS7003;20503;50.200;19.508;2023-09-30T05:26:28;20;17;12
34240;PMS7003;20503;50.200;19.508;2023-09-30T05:27:36;18;17;12
34240;PMS7003;20503;50.200;19.508;2023-09-30T05:28:41;17;14;11
34240;PMS7003;20503;50.200;19.508;2023-09-30T05:29:47;17;14;11
34240;PMS7003;20503;50.200;19.508;2023-09-30T05:30:54;17;14;10
34240;PMS7003;20503;50.200;19.508;2023-09-30T05:32:00;17;14;10
34240;PMS7003;20503;50.200;19.508;2023-09-30T05:33:06;18;15;10
34240;PMS7003;20503;50.200;19.508;2023-09-30T05:34:12;17;15;11
34240;PMS7003;20503;50.200;19.508;2023-09-30T05:35:16;16;16;11
34240;PMS7003;20503;50.200;19.508;2023-09-30T05:36:45;16;13;10
34240;PMS7003;20503;50.200;19.508;2023-09-30T05:37:53;18;15;11
34240;PMS7003;20503;50.200;19.508;2023-09-30T05:38:57;16;14;10
34240;PMS7003;20503;50.200;19.508;2023-09-30T05:40:02;17;14;10
34240;PMS7003;20503;50.200;19.508;2023-09-30T05:41:19;17;14;10
34240;PMS7003;20503;50.200;19.508;2023-09-30T05:42:22;16;15;10
34240;PMS7003;20503;50.200;19.508;2023-09-30T05:43:28;16;15;11
34240;PMS7003;20503;50.200;19.508;2023-09-30T05:44:31;16;14;10
34240;PMS7003;20503;50.200;19.508;2023-09-30T05:45:41;16;14;10
34240;PMS7003;20503;50.200;19.508;2023-09-30T05:46:55;18;15;11
34240;PMS7003;20503;50.200;19.508;2023-09-30T05:48:01;18;15;10
34240;PMS7003;20503;50.200;19.508;2023-09-30T05:49:07;17;15;10
34240;PMS7003;20503;50.200;19.508;2023-09-30T05:50:19;17;15;10
34240;PMS7003;20503;50.200;19.508;2023-09-30T05:51:30;17;15;10
34240;PMS7003;20503;50.200;19.508;2023-09-30T05:52:37;16;14;10
34240;PMS7003;20503;50.200;19.508;2023-09-30T05:53:40;16;14;10
34240;PMS7003;20503;50.200;19.508;2023-09-30T05:54:52;15;14;10
34240;PMS7003;20503;50.200;19.508;2023-09-30T05:57:16;16;15;10
34240;PMS7003;20503;50.200;19.508;2023-09-30T05:58:19;18;15;11
34240;PMS7003;20503;50.200;19.508;2023-09-30T05:59:25;18;15;11
34240;PMS7003;20503;50.200;19.508;2023-09-30T06:00:30;19;16;12
34240;PMS7003;20503;50.200;19.508;2023-09-30T06:01:36;19;16;12
34240;PMS7003;20503;50.200;19.508;2023-09-30T06:02:42;17;15;10
34240;PMS7003;20503;50.200;19.508;2023-09-30T06:03:50;17;15;10
34240;PMS7003;20503;50.200;19.508;2023-09-30T06:04:56;18;16;11
34240;PMS7003;20503;50.200;19.508;2023-09-30T06:05:59;18;16;11
34240;PMS7003;20503;50.200;19.508;2023-09-30T06:07:04;18;16;10
34240;PMS7003;20503;50.200;19.508;2023-09-30T06:08:13;18;16;10
34240;PMS7003;20503;50.200;19.508;2023-09-30T06:09:18;18;16;11
34240;PMS7003;20503;50.200;19.508;2023-09-30T06:10:27;18;16;11
34240;PMS7003;20503;50.200;19.508;2023-09-30T06:11:33;16;15;11
34240;PMS7003;20503;50.200;19.508;2023-09-30T06:12:45;18;16;11
34240;PMS7003;20503;50.200;19.508;2023-09-30T06:14:12;18;17;11
34240;PMS7003;20503;50.200;19.508;2023-09-30T06:15:20;18;16;10
34240;PMS7003;20503;50.200;19.508;2023-09-30T06:16:34;20;17;11
34240;PMS7003;20503;50.200;19.508;2023-09-30T06:17:52;20;17;12
34240;PMS7003;20503;50.200;19.508;2023-09-30T06:18:56;20;17;12
34240;PMS7003;20503;50.200;19.508;2023-09-30T06:20:06;19;17;11
34240;PMS7003;20503;50.200;19.508;2023-09-30T06:21:24;19;17;11
34240;PMS7003;20503;50.200;19.508;2023-09-30T06:22:30;18;17;12
34240;PMS7003;20503;50.200;19.508;2023-09-30T06:23:32;19;17;12
34240;PMS7003;20503;50.200;19.508;2023-09-30T06:25:01;20;19;13
34240;PMS7003;20503;50.200;19.508;2023-09-30T06:26:30;20;17;13
34240;PMS7003;20503;50.200;19.508;2023-09-30T06:27:35;20;18;14
34240;PMS7003;20503;50.200;19.508;2023-09-30T06:28:43;21;20;14
34240;PMS7003;20503;50.200;19.508;2023-09-30T06:29:49;21;20;14
34240;PMS7003;20503;50.200;19.508;2023-09-30T06:30:53;19;17;13
34240;PMS7003;20503;50.200;19.508;2023-09-30T06:31:59;19;17;13
34240;PMS7003;20503;50.200;19.508;2023-09-30T06:33:03;22;19;13
34240;PMS7003;20503;50.200;19.508;2023-09-30T06:34:08;22;19;13
34240;PMS7003;20503;50.200;19.508;2023-09-30T06:35:23;21;18;12
34240;PMS7003;20503;50.200;19.508;2023-09-30T06:36:31;21;18;12
34240;PMS7003;20503;50.200;19.508;2023-09-30T06:37:34;18;15;11
34240;PMS7003;20503;50.200;19.508;2023-09-30T06:38:40;18;15;11
34240;PMS7003;20503;50.200;19.508;2023-09-30T06:39:45;21;18;12
34240;PMS7003;20503;50.200;19.508;2023-09-30T06:41:04;18;16;12
34240;PMS7003;20503;50.200;19.508;2023-09-30T06:42:07;18;14;10
34240;PMS7003;20503;50.200;19.508;2023-09-30T06:43:10;20;16;11
34240;PMS7003;20503;50.200;19.508;2023-09-30T06:44:21;20;16;11
34240;PMS7003;20503;50.200;19.508;2023-09-30T06:45:28;16;14;10
34240;PMS7003;20503;50.200;19.508;2023-09-30T06:46:31;16;14;10
34240;PMS7003;20503;50.200;19.508;2023-09-30T06:47:47;19;16;11
34240;PMS7003;20503;50.200;19.508;2023-09-30T06:48:52;19;16;11
34240;PMS7003;20503;50.200;19.508;2023-09-30T06:49:58;18;16;12
34240;PMS7003;20503;50.200;19.508;2023-09-30T06:51:01;18;16;12
34240;PMS7003;20503;50.200;19.508;2023-09-30T06:52:04;19;16;12
34240;PMS7003;20503;50.200;19.508;2023-09-30T06:53:16;18;15;10
34240;PMS7003;20503;50.200;19.508;2023-09-30T06:54:19;17;14;9
34240;PMS7003;20503;50.200;19.508;2023-09-30T06:55:24;19;15;11
34240;PMS7003;20503;50.200;19.508;2023-09-30T06:56:33;17;15;12
34240;PMS7003;20503;50.200;19.508;2023-09-30T06:57:39;17;15;12
34240;PMS7003;20503;50.200;19.508;2023-09-30T06:58:44;21;18;12
34240;PMS7003;20503;50.200;19.508;2023-09-30T07:00:00;17;16;12
34240;PMS7003;20503;50.200;19.508;2023-09-30T07:01:18;17;16;12
34240;PMS7003;20503;50.200;19.508;2023-09-30T07:02:40;15;14;11
34240;PMS7003;20503;50.200;19.508;2023-09-30T07:03:43;18;15;11
34240;PMS7003;20503;50.200;19.508;2023-09-30T07:04:56;19;17;11
34240;PMS7003;20503;50.200;19.508;2023-09-30T07:05:59;19;17;12
34240;PMS7003;20503;50.200;19.508;2023-09-30T07:07:06;21;18;12
34240;PMS7003;20503;50.200;19.508;2023-09-30T07:08:13;21;18;12
34240;PMS7003;20503;50.200;19.508;2023-09-30T07:09:17;18;18;12
34240;PMS7003;20503;50.200;19.508;2023-09-30T07:10:26;18;18;12
34240;PMS7003;20503;50.200;19.508;2023-09-30T07:11:35;19;17;13
34240;PMS7003;20503;50.200;19.508;2023-09-30T07:12:44;19;17;13
34240;PMS7003;20503;50.200;19.508;2023-09-30T07:13:51;21;19;14
34240;PMS7003;20503;50.200;19.508;2023-09-30T07:14:56;24;20;14